In Rescue
 
Open Full Screen Window  High Contrast Mode
Wind Gusting 00 knots
04
July 13, 2020 11:07 PM CDT
Weather Information
Wind Direction
  320 °
Wind Speed
  04 kt (5 mph)
Wind Gust
  00 kt (0 mph)
Altimeter
29.74 in
Visibility
10 SM
Temperature
24° C
75° F
Dewpoint
19° C
66° F
Humidity
74%
1hr Rain Fall
00.00 in.
24hr Rain Fall
00.08 in.
Sky Condition
Clear
VFR

METAR KAQP 140407Z AUTO 32004KT 10SM CLR 24/19 A2974 RMK AO2

FAA Disclaimer: The data displayed is for advisory purposes only and is not to be used for flight planning or operations.